createdAt,value
2019-01-27T00:00:57.373Z,16.20
2019-01-27T00:03:26.949Z,18.20
2019-01-27T00:05:56.515Z,17.70
2019-01-27T00:08:25.910Z,16.80
2019-01-27T00:10:55.342Z,16.43
2019-01-27T00:13:24.847Z,18.43
2019-01-27T00:15:54.355Z,16.90
2019-01-27T00:18:23.824Z,16.83
2019-01-27T00:20:53.200Z,18.80
2019-01-27T00:23:22.740Z,15.47
2019-01-27T00:25:52.371Z,15.23
2019-01-27T00:28:21.766Z,16.97
2019-01-27T00:30:51.287Z,17.00
2019-01-27T00:33:20.869Z,15.53
2019-01-27T00:35:50.278Z,17.07
2019-01-27T00:38:19.768Z,16.53
2019-01-27T00:40:49.528Z,17.77
2019-01-27T00:43:18.971Z,15.43
2019-01-27T00:45:48.374Z,21.03
2019-01-27T00:48:18.455Z,19.63
2019-01-27T00:50:47.958Z,16.23
2019-01-27T00:53:17.380Z,17.10
2019-01-27T00:55:46.836Z,19.43
2019-01-27T00:58:16.441Z,19.33
2019-01-27T01:00:45.982Z,16.53
2019-01-27T01:03:15.988Z,19.10
2019-01-27T01:05:45.503Z,15.77
2019-01-27T01:08:16.575Z,17.37
2019-01-27T01:10:46.023Z,20.07
2019-01-27T01:13:15.618Z,16.00
2019-01-27T01:15:45.265Z,19.80
2019-01-27T01:18:14.698Z,18.20
2019-01-27T01:20:44.091Z,19.57
2019-01-27T01:23:13.601Z,17.97
2019-01-27T01:25:43.293Z,19.73
2019-01-27T01:28:12.850Z,20.10
2019-01-27T01:30:43.289Z,17.00
2019-01-27T01:33:12.851Z,20.77
2019-01-27T01:35:42.366Z,18.53
2019-01-27T01:38:11.875Z,17.10
2019-01-27T01:40:41.334Z,20.27
2019-01-27T01:43:10.818Z,17.10
2019-01-27T01:45:40.348Z,15.00
2019-01-27T01:48:10.070Z,17.07
2019-01-27T01:50:39.469Z,16.03
2019-01-27T01:53:09.064Z,16.67
2019-01-27T01:55:38.633Z,15.97
2019-01-27T01:58:08.247Z,17.77
2019-01-27T02:00:37.644Z,15.63
2019-01-27T02:03:07.280Z,16.40
2019-01-27T02:05:36.772Z,17.23
2019-01-27T02:08:06.401Z,13.10
2019-01-27T02:10:35.827Z,16.57
2019-01-27T02:13:05.839Z,16.30
2019-01-27T02:16:01.627Z,16.63
2019-01-27T02:18:31.280Z,18.40
2019-01-27T02:21:00.678Z,15.10
2019-01-27T02:23:30.221Z,16.60
2019-01-27T02:25:59.857Z,16.37
2019-01-27T02:28:29.272Z,17.67
2019-01-27T02:30:58.897Z,18.10
2019-01-27T02:33:30.641Z,17.67
2019-01-27T02:36:00.054Z,16.80
2019-01-27T02:38:29.616Z,17.00
2019-01-27T02:40:59.111Z,17.27
2019-01-27T02:43:28.523Z,16.00
2019-01-27T02:45:57.996Z,16.40
2019-01-27T02:48:27.506Z,19.03
2019-01-27T02:50:57.019Z,17.47
2019-01-27T02:53:26.472Z,17.07
2019-01-27T02:55:55.906Z,15.47
2019-01-27T02:58:25.406Z,17.73
2019-01-27T03:00:54.960Z,17.27
2019-01-27T03:03:24.469Z,15.20
2019-01-27T03:06:16.064Z,16.50
2019-01-27T03:09:10.255Z,16.80
2019-01-27T03:11:49.186Z,18.60
2019-01-27T03:14:20.777Z,19.90
2019-01-27T03:16:51.755Z,16.23
2019-01-27T03:19:21.251Z,18.40
2019-01-27T03:21:50.774Z,15.43
2019-01-27T03:24:20.377Z,18.33
2019-01-27T03:26:49.869Z,16.33
2019-01-27T03:29:19.352Z,16.03
2019-01-27T03:31:50.331Z,15.73
2019-01-27T03:34:20.086Z,18.13
2019-01-27T03:36:49.552Z,15.63
2019-01-27T03:39:19.159Z,14.63
2019-01-27T03:41:48.560Z,14.40
2019-01-27T03:44:18.066Z,14.10
2019-01-27T03:46:47.600Z,14.50
2019-01-27T03:49:16.981Z,15.00
2019-01-27T03:51:46.487Z,15.33
2019-01-27T03:54:15.921Z,15.57
2019-01-27T03:56:45.315Z,13.63
2019-01-27T03:59:14.945Z,18.13
2019-01-27T04:01:44.487Z,17.67
2019-01-27T04:04:13.890Z,16.67
2019-01-27T04:06:43.294Z,16.20
2019-01-27T04:09:14.358Z,17.20
2019-01-27T04:11:43.903Z,16.20
2019-01-27T04:14:13.304Z,15.90
2019-01-27T04:16:42.739Z,15.93
2019-01-27T04:19:12.233Z,16.60
2019-01-27T04:21:41.711Z,17.17
2019-01-27T04:24:11.335Z,16.30
2019-01-27T04:26:40.763Z,16.30
2019-01-27T04:29:10.269Z,13.87
2019-01-27T04:31:39.716Z,13.27
2019-01-27T04:34:09.239Z,15.87
2019-01-27T04:36:38.755Z,18.93
2019-01-27T04:39:11.084Z,18.03
2019-01-27T04:41:40.614Z,18.20
2019-01-27T04:44:10.139Z,23.27
2019-01-27T04:46:39.720Z,15.67
2019-01-27T04:49:09.135Z,15.57
2019-01-27T04:51:38.526Z,13.83
2019-01-27T04:54:08.097Z,15.97
2019-01-27T04:56:37.604Z,15.70
2019-01-27T04:59:07.106Z,16.13
2019-01-27T05:01:36.721Z,14.03
2019-01-27T05:04:25.259Z,14.13
2019-01-27T05:06:54.903Z,16.73
2019-01-27T05:09:24.310Z,14.17
2019-01-27T05:11:53.841Z,15.30
2019-01-27T05:14:23.575Z,17.10
2019-01-27T05:16:52.982Z,16.00
2019-01-27T05:19:22.477Z,13.87
2019-01-27T05:21:52.022Z,13.83
2019-01-27T05:24:21.428Z,14.40
2019-01-27T05:26:50.857Z,16.63
2019-01-27T05:29:20.388Z,16.10
2019-01-27T05:31:49.937Z,14.33
2019-01-27T05:34:19.356Z,15.83
2019-01-27T05:36:48.807Z,14.77
2019-01-27T05:39:18.296Z,13.97
2019-01-27T05:41:47.803Z,15.53
2019-01-27T05:44:17.267Z,16.17
2019-01-27T05:46:46.705Z,15.00
2019-01-27T05:49:16.207Z,12.63
2019-01-27T05:51:45.657Z,16.37
2019-01-27T05:54:15.162Z,14.33
2019-01-27T05:56:44.675Z,15.17
2019-01-27T05:59:14.270Z,15.67
2019-01-27T06:01:43.679Z,14.93
2019-01-27T06:04:13.178Z,17.07
2019-01-27T06:06:42.707Z,16.27
2019-01-27T06:09:12.106Z,15.93
2019-01-27T06:11:41.511Z,14.67
2019-01-27T06:14:11.192Z,14.37
2019-01-27T06:16:40.691Z,12.73
2019-01-27T06:19:10.191Z,16.53
2019-01-27T06:21:39.629Z,15.03
2019-01-27T06:24:09.135Z,15.53
2019-01-27T06:26:38.622Z,16.80
2019-01-27T06:29:08.067Z,14.20
2019-01-27T06:31:37.667Z,16.73
2019-01-27T06:34:10.497Z,15.70
2019-01-27T06:36:40.040Z,14.27
2019-01-27T06:39:10.558Z,14.40
2019-01-27T06:41:40.038Z,15.03
2019-01-27T06:44:09.486Z,15.50
2019-01-27T06:46:38.932Z,14.80
2019-01-27T06:49:08.460Z,15.73
2019-01-27T06:51:38.035Z,12.30
2019-01-27T06:54:07.545Z,13.57
2019-01-27T06:56:36.928Z,13.37
2019-01-27T06:59:24.102Z,15.67
2019-01-27T07:02:15.510Z,11.30
2019-01-27T07:05:10.076Z,11.30
2019-01-27T07:07:55.721Z,12.53
2019-01-27T07:10:42.515Z,12.50
2019-01-27T07:13:29.511Z,12.13
2019-01-27T07:16:26.765Z,11.40
2019-01-27T07:19:15.336Z,12.03
2019-01-27T07:22:06.692Z,13.07
2019-01-27T07:25:07.247Z,12.97
2019-01-27T07:27:47.800Z,12.27
2019-01-27T07:30:51.300Z,13.70
2019-01-27T07:33:54.950Z,11.20
2019-01-27T07:36:37.350Z,12.23
2019-01-27T07:39:31.160Z,12.67
2019-01-27T07:42:16.641Z,12.03
2019-01-27T07:45:00.589Z,12.53
2019-01-27T07:48:03.977Z,15.30
2019-01-27T07:51:07.613Z,11.97
2019-01-27T07:53:55.940Z,11.27
2019-01-27T07:56:43.703Z,12.10
2019-01-27T07:59:34.683Z,10.23
2019-01-27T08:02:23.241Z,11.67
2019-01-27T08:05:26.679Z,8.53
2019-01-27T08:08:11.415Z,10.00
2019-01-27T08:11:05.772Z,11.73
2019-01-27T08:13:41.067Z,9.03
2019-01-27T08:16:29.455Z,11.07
2019-01-27T08:19:24.970Z,8.90
2019-01-27T08:22:16.225Z,9.03
2019-01-27T08:25:10.725Z,9.03
2019-01-27T08:27:59.125Z,7.33
2019-01-27T08:30:44.515Z,8.40
2019-01-27T08:33:32.138Z,8.87
2019-01-27T08:36:23.381Z,9.47
2019-01-27T08:39:10.571Z,10.20
2019-01-27T08:42:17.245Z,9.93
2019-01-27T08:45:04.415Z,10.67
2019-01-27T08:47:34.080Z,10.00
2019-01-27T08:50:03.555Z,9.73
2019-01-27T08:52:33.038Z,11.87
2019-01-27T08:55:02.601Z,10.90
2019-01-27T08:57:31.979Z,13.23
2019-01-27T09:00:01.382Z,11.90
2019-01-27T09:02:44.332Z,12.27
2019-01-27T09:05:25.063Z,12.40
2019-01-27T09:08:05.687Z,12.50
2019-01-27T09:10:44.474Z,13.63
2019-01-27T09:13:24.493Z,13.47
2019-01-27T09:16:18.878Z,11.90
2019-01-27T09:19:13.864Z,13.57
2019-01-27T09:22:14.158Z,12.07
2019-01-27T09:25:00.523Z,11.00
2019-01-27T09:27:38.042Z,12.60
2019-01-27T09:30:17.932Z,13.13
2019-01-27T09:33:02.598Z,10.13
2019-01-27T09:36:06.127Z,13.30
2019-01-27T09:38:44.983Z,13.07
2019-01-27T09:41:42.386Z,13.63
2019-01-27T09:44:36.754Z,13.63
2019-01-27T09:47:15.925Z,13.90
2019-01-27T09:50:03.580Z,12.30
2019-01-27T09:52:55.059Z,14.73
2019-01-27T09:55:42.056Z,13.63
2019-01-27T09:58:23.942Z,13.23
2019-01-27T10:01:05.191Z,12.93
2019-01-27T10:04:02.890Z,15.10
2019-01-27T10:06:51.286Z,12.90
2019-01-27T10:09:36.632Z,15.20
2019-01-27T10:12:28.068Z,14.60
2019-01-27T10:15:14.833Z,22.30
2019-01-27T10:18:01.762Z,25.93
2019-01-27T10:20:52.988Z,14.20
2019-01-27T10:23:42.029Z,13.37
2019-01-27T10:26:24.741Z,16.50
2019-01-27T10:29:11.775Z,12.47
2019-01-27T10:31:54.372Z,13.23
2019-01-27T10:34:35.756Z,13.73
2019-01-27T10:37:27.881Z,12.00
2019-01-27T10:40:09.324Z,11.27
2019-01-27T10:42:43.232Z,20.73
2019-01-27T10:45:22.419Z,14.17
2019-01-27T10:48:26.826Z,12.37
2019-01-27T10:51:15.189Z,11.57
2019-01-27T10:54:09.657Z,10.77
2019-01-27T10:56:47.481Z,14.07
2019-01-27T10:59:25.515Z,14.87
2019-01-27T11:02:12.420Z,11.87
2019-01-27T11:05:06.769Z,10.73
2019-01-27T11:08:04.213Z,11.13
2019-01-27T11:11:07.771Z,12.40
2019-01-27T11:14:02.014Z,11.17
2019-01-27T11:17:08.828Z,11.80
2019-01-27T11:19:44.051Z,12.00
2019-01-27T11:22:38.429Z,11.73
2019-01-27T11:25:27.062Z,12.20
2019-01-27T11:28:12.915Z,12.77
2019-01-27T11:30:49.751Z,11.87
2019-01-27T11:33:28.216Z,12.57
2019-01-27T11:36:16.177Z,13.17
2019-01-27T11:39:02.873Z,12.77
2019-01-27T11:42:09.683Z,11.73
2019-01-27T11:44:52.830Z,11.63
2019-01-27T11:47:52.923Z,11.17
2019-01-27T11:50:42.534Z,12.73
2019-01-27T11:53:12.012Z,12.57
2019-01-27T11:55:41.488Z,13.40
2019-01-27T11:58:10.912Z,14.60
2019-01-27T12:00:42.378Z,12.43
2019-01-27T12:03:11.847Z,12.60
2019-01-27T12:05:41.266Z,13.97
2019-01-27T12:08:10.685Z,14.73
2019-01-27T12:10:40.258Z,9.80
2019-01-27T12:13:09.763Z,12.60
2019-01-27T12:15:39.170Z,9.27
2019-01-27T12:18:08.641Z,11.03
2019-01-27T12:20:38.338Z,13.10
2019-01-27T12:23:07.710Z,13.73
2019-01-27T12:25:37.229Z,8.60
2019-01-27T12:28:06.758Z,7.70
2019-01-27T12:30:36.128Z,9.47
2019-01-27T12:33:05.499Z,8.77
2019-01-27T12:35:35.106Z,10.27
2019-01-27T12:38:05.210Z,9.57
2019-01-27T12:40:34.642Z,10.50
2019-01-27T12:43:04.466Z,9.17
2019-01-27T12:45:34.049Z,9.07
2019-01-27T12:48:03.555Z,9.53
2019-01-27T12:50:33.002Z,9.17
2019-01-27T12:53:02.371Z,9.67
2019-01-27T12:55:31.946Z,10.60
2019-01-27T12:58:01.520Z,8.93
2019-01-27T13:00:34.026Z,8.13
2019-01-27T13:03:03.442Z,8.80
2019-01-27T13:05:33.174Z,10.63
2019-01-27T13:08:02.656Z,8.90
2019-01-27T13:10:32.154Z,9.30
2019-01-27T13:13:01.697Z,10.37
2019-01-27T13:15:31.286Z,10.90
2019-01-27T13:18:00.809Z,10.97
2019-01-27T13:20:30.238Z,10.40
2019-01-27T13:22:59.613Z,9.00
2019-01-27T13:25:29.106Z,8.37
2019-01-27T13:27:58.860Z,8.80
2019-01-27T13:30:28.252Z,8.57
2019-01-27T13:32:57.644Z,10.03
2019-01-27T13:35:27.173Z,10.97
2019-01-27T13:37:56.688Z,18.80
2019-01-27T13:40:26.547Z,12.60
2019-01-27T13:42:56.365Z,12.87
2019-01-27T13:45:29.346Z,20.23
2019-01-27T13:47:59.301Z,15.13
2019-01-27T13:50:28.928Z,17.33
2019-01-27T13:52:58.618Z,11.80
2019-01-27T13:55:29.919Z,9.87
2019-01-27T13:57:59.478Z,11.70
2019-01-27T14:00:31.330Z,12.33
2019-01-27T14:03:00.929Z,12.80
2019-01-27T14:05:30.369Z,14.10
2019-01-27T14:07:59.757Z,11.83
2019-01-27T14:10:29.886Z,12.13
2019-01-27T14:12:59.626Z,11.80
2019-01-27T14:15:33.645Z,16.67
2019-01-27T14:18:03.077Z,13.60
2019-01-27T14:20:32.662Z,12.87
2019-01-27T14:23:02.063Z,13.40
2019-01-27T14:25:31.883Z,12.63
2019-01-27T14:30:32.049Z,15.33
2019-01-27T14:33:01.424Z,12.83
2019-01-27T14:35:30.812Z,10.87
2019-01-27T14:38:00.329Z,10.23
2019-01-27T14:40:30.408Z,12.50
2019-01-27T14:43:00.927Z,14.10
2019-01-27T14:45:30.917Z,16.27
2019-01-27T14:48:00.758Z,12.10
2019-01-27T14:50:32.413Z,13.03
2019-01-27T14:53:01.904Z,10.87
2019-01-27T14:55:31.718Z,13.03
2019-01-27T14:58:01.203Z,14.50
2019-01-27T15:00:36.335Z,17.60
2019-01-27T15:03:04.439Z,17.27
2019-01-27T15:05:33.959Z,17.03
2019-01-27T15:08:03.583Z,18.00
2019-01-27T15:10:33.049Z,16.57
2019-01-27T15:13:02.533Z,16.33
2019-01-27T15:15:32.045Z,17.03
2019-01-27T15:18:01.416Z,16.53
2019-01-27T15:20:36.207Z,17.40
2019-01-27T15:23:05.802Z,17.23
2019-01-27T15:25:35.320Z,19.13
2019-01-27T15:28:05.132Z,18.93
2019-01-27T15:30:35.092Z,20.93
2019-01-27T15:33:06.599Z,25.50
2019-01-27T15:35:36.121Z,26.33
2019-01-27T15:38:05.735Z,27.17
2019-01-27T15:40:35.126Z,25.90
2019-01-27T15:43:04.920Z,27.33
2019-01-27T15:45:34.487Z,28.73
2019-01-27T15:48:03.890Z,32.57
2019-01-27T15:50:33.988Z,30.60
2019-01-27T15:53:03.392Z,29.40
2019-01-27T15:55:32.768Z,31.33
2019-01-27T15:58:02.292Z,31.60
2019-01-27T16:00:32.191Z,31.23
2019-01-27T16:03:01.598Z,34.27
2019-01-27T16:05:31.337Z,37.17
2019-01-27T16:08:00.825Z,40.53
2019-01-27T16:10:30.417Z,42.27
2019-01-27T16:13:00.003Z,49.03
2019-01-27T16:15:30.925Z,49.07
2019-01-27T16:18:00.407Z,59.00
2019-01-27T16:20:30.115Z,61.10
2019-01-27T16:23:13.267Z,63.43
2019-01-27T16:25:42.862Z,58.50
2019-01-27T16:28:12.440Z,56.33
2019-01-27T16:31:04.162Z,55.60
2019-01-27T16:33:39.032Z,55.03
2019-01-27T16:36:08.595Z,76.57
2019-01-27T16:38:38.002Z,84.87
2019-01-27T16:41:07.707Z,70.17
2019-01-27T16:43:37.292Z,80.27
2019-01-27T16:46:06.897Z,79.37
2019-01-27T16:48:36.307Z,81.50
2019-01-27T16:51:11.443Z,61.07
2019-01-27T16:53:55.804Z,36.87
2019-01-27T16:56:25.331Z,38.53
2019-01-27T16:58:54.733Z,33.70
2019-01-27T17:01:24.418Z,44.67
2019-01-27T17:03:54.042Z,42.73
2019-01-27T17:06:23.524Z,45.27
2019-01-27T17:08:52.934Z,45.63
2019-01-27T17:11:22.397Z,49.17
2019-01-27T17:13:51.890Z,49.40
2019-01-27T17:16:21.498Z,59.73
2019-01-27T17:18:52.893Z,46.30
2019-01-27T17:21:22.409Z,49.87
2019-01-27T17:23:51.907Z,53.73
2019-01-27T17:26:21.429Z,93.73
2019-01-27T17:28:50.823Z,57.07
2019-01-27T17:31:20.304Z,55.30
2019-01-27T17:33:49.939Z,63.60
2019-01-27T17:36:19.566Z,59.17
2019-01-27T17:38:49.041Z,72.27
2019-01-27T17:41:18.519Z,76.63
2019-01-27T17:43:48.012Z,57.23
2019-01-27T17:46:17.708Z,61.27
2019-01-27T17:48:47.331Z,58.57
2019-01-27T17:51:16.854Z,60.23
2019-01-27T17:53:52.720Z,58.50
2019-01-27T17:56:22.877Z,48.97
2019-01-27T17:59:00.712Z,46.63
2019-01-27T18:01:58.299Z,46.07
2019-01-27T18:04:52.833Z,42.23
2019-01-27T18:07:46.973Z,44.87
2019-01-27T18:10:31.462Z,49.73
2019-01-27T18:13:18.395Z,64.43
2019-01-27T18:15:47.856Z,65.07
2019-01-27T18:18:17.258Z,96.60
2019-01-27T18:20:46.856Z,131.47
2019-01-27T18:23:16.375Z,118.60
2019-01-27T18:25:45.774Z,143.57
2019-01-27T18:28:15.224Z,155.10
2019-01-27T18:30:45.119Z,150.93
2019-01-27T18:33:14.529Z,133.20
2019-01-27T18:35:44.141Z,132.80
2019-01-27T18:38:13.709Z,141.90
2019-01-27T18:40:43.126Z,134.67
2019-01-27T18:43:12.540Z,122.17
2019-01-27T18:45:42.077Z,107.27
2019-01-27T18:48:12.186Z,95.23
2019-01-27T18:50:41.675Z,86.30
2019-01-27T18:53:18.715Z,88.60
2019-01-27T18:56:04.415Z,78.70
2019-01-27T18:58:51.709Z,79.97
2019-01-27T19:01:30.491Z,84.30
2019-01-27T19:04:12.108Z,84.60
2019-01-27T19:07:12.519Z,81.63
2019-01-27T19:09:52.450Z,83.30
2019-01-27T19:12:49.937Z,89.43
2019-01-27T19:15:47.800Z,102.37
2019-01-27T19:18:35.063Z,118.70
2019-01-27T19:21:32.399Z,104.60
2019-01-27T19:24:27.792Z,96.13
2019-01-27T19:27:16.258Z,88.00
2019-01-27T19:29:54.298Z,86.13
2019-01-27T19:32:49.899Z,84.77
2019-01-27T19:35:37.026Z,89.27
2019-01-27T19:38:25.481Z,81.67
2019-01-27T19:41:28.702Z,82.27
2019-01-27T19:44:20.017Z,82.23
2019-01-27T19:47:26.190Z,73.67
2019-01-27T19:50:17.730Z,68.27
2019-01-27T19:53:05.508Z,69.07
2019-01-27T19:55:52.100Z,54.73
2019-01-27T19:58:35.073Z,51.53
2019-01-27T20:01:15.833Z,57.97
2019-01-27T20:04:09.249Z,63.93
2019-01-27T20:06:58.997Z,59.17
2019-01-27T20:09:56.098Z,61.80
2019-01-27T20:12:42.773Z,62.47
2019-01-27T20:15:26.906Z,63.27
2019-01-27T20:18:06.687Z,60.73
2019-01-27T20:20:58.046Z,52.57
2019-01-27T20:23:36.936Z,52.23
2019-01-27T20:26:30.048Z,51.50
2019-01-27T20:29:21.536Z,52.90
2019-01-27T20:32:09.850Z,56.80
2019-01-27T20:35:16.885Z,53.70
2019-01-27T20:37:57.728Z,51.07
2019-01-27T20:40:45.992Z,49.60
2019-01-27T20:43:28.655Z,48.90
2019-01-27T20:46:23.055Z,46.33
2019-01-27T20:49:14.378Z,45.87
2019-01-27T20:51:54.069Z,45.60
2019-01-27T20:54:51.388Z,42.63
2019-01-27T20:57:31.197Z,40.80
2019-01-27T21:00:19.528Z,41.23
2019-01-27T21:03:13.841Z,38.73
2019-01-27T21:05:58.445Z,39.33
2019-01-27T21:08:52.750Z,38.30
2019-01-27T21:11:46.843Z,39.87
2019-01-27T21:14:38.311Z,40.33
2019-01-27T21:17:16.402Z,38.30
2019-01-27T21:19:59.515Z,38.93
2019-01-27T21:22:28.909Z,35.80
2019-01-27T21:24:58.304Z,38.00
2019-01-27T21:27:27.833Z,34.97
2019-01-27T21:29:57.239Z,37.90
2019-01-27T21:32:26.805Z,37.93
2019-01-27T21:34:56.644Z,35.63
2019-01-27T21:37:26.063Z,37.40
2019-01-27T21:39:55.461Z,35.90
2019-01-27T21:42:25.215Z,37.03
2019-01-27T21:44:54.676Z,40.30
2019-01-27T21:47:24.074Z,40.43
2019-01-27T21:49:53.710Z,42.17
2019-01-27T21:52:23.193Z,42.37
2019-01-27T21:54:52.714Z,47.10
2019-01-27T21:57:22.288Z,49.70
2019-01-27T21:59:51.793Z,48.40
2019-01-27T22:02:21.403Z,47.87
2019-01-27T22:04:50.931Z,48.10
2019-01-27T22:07:20.328Z,50.53
2019-01-27T22:09:49.814Z,50.80
2019-01-27T22:12:19.232Z,50.33
2019-01-27T22:14:48.641Z,52.60
2019-01-27T22:17:18.156Z,61.67
2019-01-27T22:19:47.667Z,57.10
2019-01-27T22:22:17.062Z,49.67
2019-01-27T22:24:46.446Z,51.07
2019-01-27T22:27:15.982Z,52.60
2019-01-27T22:29:45.457Z,54.33
2019-01-27T22:32:14.954Z,52.87
2019-01-27T22:34:44.405Z,52.97
2019-01-27T22:37:15.167Z,53.50
2019-01-27T22:39:44.725Z,54.73
2019-01-27T22:42:14.344Z,55.17
2019-01-27T22:44:43.751Z,51.40
2019-01-27T22:47:13.230Z,55.20
2019-01-27T22:49:42.854Z,53.67
2019-01-27T22:52:12.242Z,50.00
2019-01-27T22:54:41.653Z,51.70
2019-01-27T22:57:11.271Z,51.10
2019-01-27T22:59:40.752Z,52.87
2019-01-27T23:02:10.282Z,58.17
2019-01-27T23:04:39.739Z,52.37
2019-01-27T23:07:09.222Z,50.00
2019-01-27T23:09:38.700Z,46.70
2019-01-27T23:12:08.154Z,45.97
2019-01-27T23:14:37.556Z,47.23
2019-01-27T23:17:07.061Z,45.33
2019-01-27T23:19:36.587Z,47.87
2019-01-27T23:22:05.983Z,41.67
2019-01-27T23:24:35.388Z,40.10
2019-01-27T23:27:05.228Z,36.77
2019-01-27T23:29:34.611Z,40.37
2019-01-27T23:32:04.105Z,41.20
2019-01-27T23:34:33.655Z,43.57
2019-01-27T23:37:03.047Z,41.27
2019-01-27T23:39:33.628Z,39.37
2019-01-27T23:42:03.171Z,40.77
2019-01-27T23:44:32.753Z,38.77
2019-01-27T23:47:02.126Z,40.97
2019-01-27T23:49:31.564Z,41.20
2019-01-27T23:52:01.071Z,40.77
2019-01-27T23:54:30.558Z,40.40
2019-01-27T23:57:00.234Z,40.83
2019-01-27T23:59:29.642Z,41.90
